Warthen, GA

8:21 PM EST on November 23, 2014 (GMT -0500)
Kaolin | Change Station
CLOSE
Current Station
Airport
Location: Sandersville Kaolin Field Air,
Elevation: 436 ft
Nearby Weather Stations

Elev 436 ft 32.97 °N, 82.84 °W | Updated 26 minutes ago

Mostly Cloudy
Mostly Cloudy
64 °F
Feels Like 64 °F
N
8
Wind Variable Wind from SW

Today
High -- | Low -- °F
--% Chance of Precip.
Yesterday
High -- | Low -- °F
Precip. -- in
7:09 AM 5:26 PM
Waxing Crescent, 3% visible
Pressure 29.79 in
Visibility 10.0 miles
Clouds Scattered Clouds 6000 ft
Scattered Clouds 7000 ft
Mostly Cloudy 11000 ft
Dew Point 63 °F
Humidity 96%
Rainfall 0.00 in
Snow Depth Not available.
UV 0 out of 12
Pollen .30 out of 12
Air Quality Not available.
Flu Activity Not available.
METAR KOKZ 240055Z AUTO 23007KT 10SM -DZ SCT060 SCT070 BKN110 18/17 A2979 RMK AO2 T01770170

More Conditions Fewer Conditions

Pressure 29.79 in
Visibility 10.0 miles
Clouds Scattered Clouds 6000 ft
Scattered Clouds 7000 ft
Mostly Cloudy 11000 ft
Dew Point 63 °F
Humidity 96%
Rainfall 0.00 in
Snow Depth Not available.
UV 0 out of 12
Pollen .30 out of 12
Air Quality Not available.
Flu Activity Not available.
METAR KOKZ 240055Z AUTO 23007KT 10SM -DZ SCT060 SCT070 BKN110 18/17 A2979 RMK AO2 T01770170

More Conditions Fewer Conditions

10-Day Weather Forecast

Almanac

Astronomy

Nov. 23, 2014 Rise Set
Actual Time
Civil Twilight
Nautical Twilight
Astronomical Twilight
Moon
Length of Visible Light
Length of Day
Tomorrow will be .
, % of the Moon is Illuminated

Today's Extremes

State Highs State Lows

Community

WunderPhotos

Upload Photos

1,773,234 photos uploaded!

WunderBlogs® & News

Nearby

Air Quality

  Air Quality AQ Index Pollutant
Not available.

Snow Depth

Station Depth Elevation

Earthquake Activity

City Distance Mag. Time & Date
Minimum magnitude displayed is 2.5.

Coastal Water Temperatures

Place Temperature

Nearby Weather Stations